This is the latest recevied weather packets stored in our database for station/object AG1T-20. If no packets are shown the sender has not sent any weather packets the latest 10 day(s).
| Time | Temp. | Humidity | Pressure | Rain* | Wind** | Luminosity | Snow |
|---|---|---|---|---|---|---|---|
| 1787892604 | 25° C | 40% | 1020.8 hPa | 0 mm | - | 0 W/m² | - |
| 1787892005 | 25° C | 38% | 1020.8 hPa | 0 mm | - | 0 W/m² | - |
| 1787891404 | 25° C | 39% | 1020.8 hPa | 0 mm | - | 0 W/m² | - |
| 1787890804 | 25.56° C | 36% | 1020.8 hPa | 0 mm | - | 0 W/m² | - |
| 1787890205 | 26.11° C | 34% | 1020.8 hPa | 0 mm | - | 0 W/m² | - |
| 1787889605 | 26.11° C | 35% | 1020.8 hPa | 0 mm | - | 0 W/m² | - |
| 1787889004 | 26.11° C | 33% | 1019.6 hPa | 0 mm | - | 0 W/m² | - |
| 1787888404 | 26.67° C | 32% | 1019.6 hPa | 0 mm | - | 0 W/m² | - |
| 1787887804 | 27.22° C | 31% | 1019.6 hPa | 0 mm | - | 0 W/m² | - |
| 1787887204 | 27.22° C | 31% | 1019.6 hPa | 0 mm | - | 0 W/m² | - |
| 1787886604 | 27.22° C | 31% | 1019.6 hPa | 0 mm | - | 0 W/m² | - |
| 1787886004 | 27.22° C | 31% | 1019.6 hPa | 0 mm | - | 0 W/m² | - |
| 1787885404 | 27.78° C | 30% | 1019.5 hPa | 0 mm | - | 0 W/m² | - |
| 1787884804 | 27.78° C | 30% | 1019.5 hPa | 0 mm | - | 0 W/m² | - |
| 1787884204 | 27.78° C | 29% | 1019.5 hPa | 0 mm | - | 0 W/m² | - |
| 1787883604 | 27.22° C | 31% | 1019.5 hPa | 0 mm | - | 0 W/m² | - |
| 1787883004 | 27.78° C | 30% | 1019.5 hPa | 0 mm | - | 1 W/m² | - |
| 1787882404 | 27.78° C | 32% | 1019.5 hPa | 0 mm | - | 2 W/m² | - |
| 1787881804 | 28.33° C | 31% | 1019.9 hPa | 0 mm | - | 7 W/m² | - |
| 1787881204 | 28.89° C | 29% | 1019.9 hPa | 0 mm | - | 9 W/m² | - |
| 1787880604 | 28.33° C | 32% | 1019.9 hPa | 0 mm | - | 13 W/m² | - |
| 1787880004 | 28.89° C | 30% | 1019.9 hPa | 0 mm | - | 20 W/m² | - |
| 1787879404 | 28.89° C | 30% | 1019.9 hPa | 0 mm | - | 26 W/m² | - |
| 1787878804 | 28.33° C | 30% | 1019.9 hPa | 0 mm | - | 18 W/m² | - |
| 1787878205 | 29.44° C | 29% | 1019.1 hPa | 0 mm | - | 21 W/m² | - |
* Rain latest hour (hover to see other rain measurements)
** Current wind speed in m/s (hover to see current wind gust speed)